createdAt,value
2022-12-11T00:00:35.816Z,2.85
2022-12-11T00:01:28.721Z,2.81
2022-12-11T00:02:15.930Z,2.75
2022-12-11T00:03:15.378Z,2.82
2022-12-11T00:04:09.711Z,2.88
2022-12-11T00:05:03.801Z,2.85
2022-12-11T00:05:59.700Z,2.74
2022-12-11T00:06:56.696Z,2.90
2022-12-11T00:07:37.725Z,2.81
2022-12-11T00:08:18.820Z,2.88
2022-12-11T00:09:00.725Z,2.92
2022-12-11T00:09:40.777Z,2.97
2022-12-11T00:10:20.730Z,2.91
2022-12-11T00:11:00.802Z,2.88
2022-12-11T00:11:41.724Z,2.97
2022-12-11T00:12:22.775Z,2.89
2022-12-11T00:13:02.771Z,2.99
2022-12-11T00:13:42.803Z,2.98
2022-12-11T00:14:22.699Z,2.95
2022-12-11T00:15:02.762Z,2.97
2022-12-11T00:15:44.721Z,2.83
2022-12-11T00:16:27.154Z,2.84
2022-12-11T00:17:08.855Z,2.88
2022-12-11T00:17:48.774Z,2.78
2022-12-11T00:18:29.737Z,2.85
2022-12-11T00:19:09.767Z,2.80
2022-12-11T00:19:49.699Z,2.69
2022-12-11T00:20:29.771Z,2.81
2022-12-11T00:21:13.713Z,2.86
2022-12-11T00:22:07.742Z,2.82
2022-12-11T00:23:01.734Z,2.72
2022-12-11T00:23:49.706Z,2.88
2022-12-11T00:24:23.738Z,2.72
2022-12-11T00:25:11.919Z,2.97
2022-12-11T00:25:53.838Z,2.81
2022-12-11T00:26:41.708Z,2.89
2022-12-11T00:27:15.800Z,2.81
2022-12-11T00:28:02.768Z,2.80
2022-12-11T00:28:36.829Z,2.76
2022-12-11T00:29:20.733Z,2.81
2022-12-11T00:30:00.758Z,2.63
2022-12-11T00:30:40.714Z,2.68
2022-12-11T00:31:24.877Z,2.76
2022-12-11T00:32:04.706Z,2.63
2022-12-11T00:32:44.788Z,2.74
2022-12-11T00:33:24.671Z,2.72
2022-12-11T00:34:04.808Z,2.63
2022-12-11T00:34:44.704Z,2.58
2022-12-11T00:35:25.739Z,2.65
2022-12-11T00:36:06.724Z,2.72
2022-12-11T00:36:46.738Z,2.79
2022-12-11T00:37:26.758Z,2.69
2022-12-11T00:38:06.728Z,2.72
2022-12-11T00:38:46.675Z,2.67
2022-12-11T00:39:26.832Z,2.65
2022-12-11T00:40:10.709Z,2.58
2022-12-11T00:40:52.047Z,2.70
2022-12-11T00:41:32.684Z,2.72
2022-12-11T00:42:15.553Z,2.75
2022-12-11T00:42:56.679Z,2.68
2022-12-11T00:43:36.787Z,2.65
2022-12-11T00:44:17.689Z,2.62
2022-12-11T00:44:58.737Z,2.57
2022-12-11T00:45:46.741Z,2.58
2022-12-11T00:46:26.710Z,2.65
2022-12-11T00:47:06.656Z,2.60
2022-12-11T00:47:46.792Z,2.40
2022-12-11T00:48:26.693Z,2.57
2022-12-11T00:49:06.740Z,2.61
2022-12-11T00:49:50.018Z,2.64
2022-12-11T00:50:30.749Z,2.69
2022-12-11T00:51:11.688Z,2.71
2022-12-11T00:51:51.724Z,2.65
2022-12-11T00:52:31.684Z,2.66
2022-12-11T00:53:13.872Z,2.61
2022-12-11T00:53:54.658Z,2.76
2022-12-11T00:54:34.812Z,2.70
2022-12-11T00:55:14.741Z,2.77
2022-12-11T00:55:54.791Z,2.74
2022-12-11T00:56:34.869Z,2.78
2022-12-11T00:57:14.815Z,2.77
2022-12-11T00:57:57.696Z,2.75
2022-12-11T00:58:38.684Z,2.75
2022-12-11T00:59:19.663Z,2.71
2022-12-11T00:59:59.882Z,2.77
2022-12-11T01:00:40.664Z,2.80
2022-12-11T01:01:27.785Z,2.83
2022-12-11T01:02:08.745Z,2.72
2022-12-11T01:02:49.786Z,2.79
2022-12-11T01:03:29.793Z,2.62
2022-12-11T01:04:09.734Z,2.67
2022-12-11T01:04:49.689Z,2.74
2022-12-11T01:05:29.785Z,2.65
2022-12-11T01:06:10.646Z,2.72
2022-12-11T01:06:50.716Z,2.78
2022-12-11T01:07:31.665Z,2.71
2022-12-11T01:08:12.873Z,2.67
2022-12-11T01:08:53.650Z,2.70
2022-12-11T01:09:52.387Z,2.47
2022-12-11T01:10:33.710Z,2.76
2022-12-11T01:11:17.732Z,2.75
2022-12-11T01:11:59.633Z,2.69
2022-12-11T01:12:46.682Z,2.67
2022-12-11T01:13:40.702Z,2.82
2022-12-11T01:14:34.647Z,2.92
2022-12-11T01:15:29.656Z,2.85
2022-12-11T01:16:29.728Z,2.88
2022-12-11T01:17:23.633Z,2.89
2022-12-11T01:18:11.683Z,2.80
2022-12-11T01:18:46.755Z,2.98
2022-12-11T01:19:33.656Z,3.02
2022-12-11T01:20:07.736Z,3.00
2022-12-11T01:20:55.641Z,3.00
2022-12-11T01:21:29.926Z,2.91
2022-12-11T01:22:16.667Z,2.86
2022-12-11T01:22:50.710Z,2.74
2022-12-11T01:23:31.649Z,2.87
2022-12-11T01:24:12.700Z,2.88
2022-12-11T01:24:53.620Z,2.85
2022-12-11T01:25:35.680Z,2.92
2022-12-11T01:26:19.643Z,2.88
2022-12-11T01:26:59.663Z,2.92
2022-12-11T01:27:40.673Z,2.82
2022-12-11T01:28:20.664Z,2.89
2022-12-11T01:29:00.663Z,2.92
2022-12-11T01:29:41.755Z,2.98
2022-12-11T01:30:21.656Z,2.88
2022-12-11T01:31:01.699Z,3.02
2022-12-11T01:31:41.631Z,3.01
2022-12-11T01:32:21.663Z,3.03
2022-12-11T01:33:01.642Z,2.97
2022-12-11T01:33:41.707Z,2.98
2022-12-11T01:34:23.631Z,2.96
2022-12-11T01:35:03.691Z,3.00
2022-12-11T01:35:46.658Z,3.05
2022-12-11T01:36:28.672Z,2.99
2022-12-11T01:37:08.655Z,2.86
2022-12-11T01:37:49.701Z,2.69
2022-12-11T01:38:30.604Z,2.80
2022-12-11T01:39:10.766Z,2.86
2022-12-11T01:39:50.752Z,2.86
2022-12-11T01:40:30.733Z,2.93
2022-12-11T01:41:11.636Z,2.85
2022-12-11T01:41:51.675Z,2.82
2022-12-11T01:42:32.613Z,2.84
2022-12-11T01:43:12.662Z,2.89
2022-12-11T01:44:12.617Z,2.96
2022-12-11T01:44:59.643Z,2.91
2022-12-11T01:45:56.651Z,2.81
2022-12-11T01:46:50.654Z,2.77
2022-12-11T01:47:44.623Z,2.73
2022-12-11T01:48:44.622Z,2.74
2022-12-11T01:49:40.591Z,2.78
2022-12-11T01:50:21.627Z,2.58
2022-12-11T01:51:10.684Z,2.44
2022-12-11T01:52:05.608Z,2.58
2022-12-11T01:52:46.652Z,2.57
2022-12-11T01:53:33.604Z,2.57
2022-12-11T01:54:17.683Z,2.59
2022-12-11T01:54:58.632Z,2.51
2022-12-11T01:55:39.612Z,2.67
2022-12-11T01:56:13.628Z,2.63
2022-12-11T01:57:05.626Z,2.40
2022-12-11T01:57:39.692Z,2.35
2022-12-11T01:58:28.626Z,2.22
2022-12-11T01:59:07.280Z,2.09
2022-12-11T01:59:55.765Z,2.32
2022-12-11T02:00:29.711Z,2.26
2022-12-11T02:01:10.655Z,2.21
2022-12-11T02:02:00.641Z,2.31
2022-12-11T02:02:41.636Z,2.30
2022-12-11T02:03:21.731Z,2.20
2022-12-11T02:04:02.610Z,2.25
2022-12-11T02:04:45.663Z,2.11
2022-12-11T02:05:26.586Z,2.00
2022-12-11T02:06:08.706Z,1.97
2022-12-11T02:06:58.601Z,2.12
2022-12-11T02:07:53.684Z,1.95
2022-12-11T02:08:33.596Z,1.99
2022-12-11T02:09:18.657Z,1.91
2022-12-11T02:09:58.588Z,1.79
2022-12-11T02:11:07.697Z,1.71
2022-12-11T02:11:55.607Z,1.86
2022-12-11T02:13:14.622Z,1.81
2022-12-11T02:14:40.657Z,1.74
2022-12-11T02:15:43.605Z,1.78
2022-12-11T02:16:45.728Z,1.75
2022-12-11T02:17:42.584Z,1.72
2022-12-11T02:19:02.641Z,1.75
2022-12-11T02:20:23.784Z,1.93
2022-12-11T02:21:20.621Z,1.86
2022-12-11T02:21:56.120Z,2.01
2022-12-11T02:23:12.593Z,2.03
2022-12-11T02:24:13.585Z,1.85
2022-12-11T02:25:39.703Z,1.96
2022-12-11T02:26:45.621Z,2.05
2022-12-11T02:27:58.857Z,1.84
2022-12-11T02:28:50.609Z,1.71
2022-12-11T02:30:35.586Z,1.87
2022-12-11T02:31:35.086Z,1.82
2022-12-11T02:32:32.601Z,1.97
2022-12-11T02:33:07.674Z,1.97
2022-12-11T02:34:12.571Z,2.00
2022-12-11T02:35:13.491Z,2.04
2022-12-11T02:36:01.578Z,2.03
2022-12-11T02:36:40.624Z,1.97
2022-12-11T02:37:35.557Z,1.98
2022-12-11T02:38:41.576Z,1.84
2022-12-11T02:39:29.586Z,1.72
2022-12-11T02:40:07.832Z,1.75
2022-12-11T02:40:57.558Z,1.81
2022-12-11T02:41:39.556Z,1.77
2022-12-11T02:42:20.578Z,1.75
2022-12-11T02:43:03.545Z,1.70
2022-12-11T02:43:45.647Z,1.63
2022-12-11T02:44:33.546Z,1.67
2022-12-11T02:45:15.606Z,1.70
2022-12-11T02:45:57.681Z,1.63
2022-12-11T02:46:46.561Z,1.66
2022-12-11T02:47:20.704Z,1.78
2022-12-11T02:48:10.534Z,1.75
2022-12-11T02:48:44.544Z,1.84
2022-12-11T02:49:33.556Z,1.91
2022-12-11T02:50:12.631Z,1.91
2022-12-11T02:51:01.545Z,1.89
2022-12-11T02:51:44.338Z,1.95
2022-12-11T02:52:27.576Z,1.90
2022-12-11T02:53:02.723Z,1.95
2022-12-11T02:53:39.127Z,1.94
2022-12-11T02:54:35.561Z,1.94
2022-12-11T02:55:10.815Z,1.92
2022-12-11T02:55:45.819Z,1.89
2022-12-11T02:56:40.550Z,1.79
2022-12-11T02:57:52.571Z,1.90
2022-12-11T02:58:32.678Z,1.98
2022-12-11T02:59:29.544Z,2.01
2022-12-11T03:00:05.037Z,1.97
2022-12-11T03:00:51.572Z,1.93
2022-12-11T03:01:26.489Z,2.08
2022-12-11T03:03:15.529Z,1.95
2022-12-11T03:03:55.665Z,2.07
2022-12-11T03:04:37.528Z,2.04
2022-12-11T03:05:19.615Z,2.16
2022-12-11T03:06:00.521Z,2.26
2022-12-11T03:06:49.576Z,2.34
2022-12-11T03:07:36.548Z,2.31
2022-12-11T03:08:24.572Z,2.20
2022-12-11T03:08:59.261Z,2.17
2022-12-11T03:09:46.507Z,2.13
2022-12-11T03:10:20.994Z,2.19
2022-12-11T03:11:07.539Z,2.14
2022-12-11T03:11:41.290Z,2.29
2022-12-11T03:12:43.564Z,2.33
2022-12-11T03:13:21.345Z,2.16
2022-12-11T03:14:02.788Z,2.14
2022-12-11T03:14:36.582Z,2.13
2022-12-11T03:15:16.012Z,2.15
2022-12-11T03:16:31.501Z,1.97
2022-12-11T03:17:34.752Z,2.01
2022-12-11T03:18:17.671Z,1.98
2022-12-11T03:19:10.601Z,2.01
2022-12-11T03:19:51.151Z,1.77
2022-12-11T03:20:44.618Z,2.00
2022-12-11T03:22:01.520Z,2.06
2022-12-11T03:22:58.653Z,2.05
2022-12-11T03:23:44.698Z,2.15
2022-12-11T03:24:52.531Z,2.15
2022-12-11T03:25:32.569Z,2.18
2022-12-11T03:26:11.828Z,2.18
2022-12-11T03:27:04.515Z,2.22
2022-12-11T03:28:09.572Z,2.20
2022-12-11T03:29:01.047Z,2.19
2022-12-11T03:29:46.476Z,2.22
2022-12-11T03:30:31.583Z,2.21
2022-12-11T03:31:11.518Z,2.13
2022-12-11T03:32:19.508Z,2.15
2022-12-11T03:33:11.985Z,2.21
2022-12-11T03:34:02.528Z,2.18
2022-12-11T03:34:58.341Z,2.09
2022-12-11T03:35:54.524Z,2.18
2022-12-11T03:36:34.053Z,2.18
2022-12-11T03:37:22.513Z,2.12
2022-12-11T03:37:57.925Z,2.04
2022-12-11T03:38:51.485Z,2.05
2022-12-11T03:39:30.919Z,2.00
2022-12-11T03:40:23.504Z,1.78
2022-12-11T03:41:07.507Z,1.77
2022-12-11T03:41:48.576Z,1.76
2022-12-11T03:42:30.472Z,1.77
2022-12-11T03:43:12.604Z,1.76
2022-12-11T03:43:53.498Z,1.79
2022-12-11T03:44:34.722Z,1.86
2022-12-11T03:45:16.485Z,1.79
2022-12-11T03:45:57.633Z,1.71
2022-12-11T03:46:42.496Z,1.69
2022-12-11T03:47:27.568Z,1.55
2022-12-11T03:48:09.477Z,1.53
2022-12-11T03:48:51.591Z,1.66
2022-12-11T03:49:36.476Z,1.73
2022-12-11T03:50:18.530Z,1.75
2022-12-11T03:50:59.483Z,1.68
2022-12-11T03:51:42.280Z,1.47
2022-12-11T03:52:23.495Z,1.63
2022-12-11T03:53:04.666Z,1.59
2022-12-11T03:53:45.475Z,1.64
2022-12-11T03:54:26.746Z,1.62
2022-12-11T03:55:10.628Z,1.61
2022-12-11T03:55:51.566Z,1.60
2022-12-11T03:56:34.476Z,1.68
2022-12-11T03:57:16.676Z,1.59
2022-12-11T03:57:56.508Z,1.74
2022-12-11T03:58:37.600Z,1.82
2022-12-11T03:59:18.462Z,1.89
2022-12-11T03:59:59.575Z,1.86
2022-12-11T04:00:39.502Z,1.90
2022-12-11T04:01:20.532Z,1.71
2022-12-11T04:02:00.546Z,1.82
2022-12-11T04:02:41.612Z,1.74
2022-12-11T04:03:24.556Z,1.84
2022-12-11T04:04:04.534Z,1.88
2022-12-11T04:04:45.450Z,1.93
2022-12-11T04:05:25.564Z,1.96
2022-12-11T04:06:06.486Z,1.85
2022-12-11T04:06:46.569Z,1.84
2022-12-11T04:07:26.455Z,1.97
2022-12-11T04:08:06.715Z,1.98
2022-12-11T04:08:46.524Z,1.94
2022-12-11T04:09:26.539Z,1.94
2022-12-11T04:10:07.468Z,2.05
2022-12-11T04:10:48.538Z,2.02
2022-12-11T04:11:43.479Z,2.03
2022-12-11T04:12:24.468Z,2.05
2022-12-11T04:13:04.444Z,2.02
2022-12-11T04:14:13.460Z,2.07
2022-12-11T04:15:02.208Z,2.07
2022-12-11T04:15:51.546Z,2.13
2022-12-11T04:16:25.121Z,2.12
2022-12-11T04:17:13.490Z,2.05
2022-12-11T04:18:05.837Z,1.95
2022-12-11T04:19:10.445Z,1.84
2022-12-11T04:20:09.507Z,1.83
2022-12-11T04:21:09.177Z,1.75
2022-12-11T04:22:08.467Z,1.85
2022-12-11T04:23:06.821Z,1.81
2022-12-11T04:24:06.449Z,1.87
2022-12-11T04:24:46.466Z,1.94
2022-12-11T04:25:26.455Z,1.86
2022-12-11T04:26:24.508Z,1.92
2022-12-11T04:27:04.411Z,1.83
2022-12-11T04:27:51.604Z,1.85
2022-12-11T04:28:39.457Z,1.86
2022-12-11T04:29:13.519Z,1.82
2022-12-11T04:30:01.433Z,1.91
2022-12-11T04:30:42.467Z,1.96
2022-12-11T04:31:37.448Z,2.00
2022-12-11T04:32:31.409Z,2.01
2022-12-11T04:33:25.420Z,1.80
2022-12-11T04:34:19.417Z,1.85
2022-12-11T04:35:13.635Z,1.79
2022-12-11T04:36:00.434Z,1.89
2022-12-11T04:36:34.489Z,1.84
2022-12-11T04:37:21.407Z,1.88
2022-12-11T04:37:55.583Z,1.95
2022-12-11T04:38:42.403Z,2.04
2022-12-11T04:39:16.484Z,2.07
2022-12-11T04:40:03.415Z,2.04
2022-12-11T04:40:37.550Z,2.11
2022-12-11T04:41:25.421Z,1.91
2022-12-11T04:41:59.469Z,1.94
2022-12-11T04:42:46.417Z,1.93
2022-12-11T04:43:20.738Z,1.93
2022-12-11T04:44:07.407Z,1.79
2022-12-11T04:44:41.449Z,1.76
2022-12-11T04:45:28.408Z,1.86
2022-12-11T04:46:14.507Z,1.78
2022-12-11T04:46:54.420Z,1.91
2022-12-11T04:47:34.467Z,1.82
2022-12-11T04:48:15.409Z,1.68
2022-12-11T04:48:58.099Z,1.57
2022-12-11T04:49:38.400Z,1.41
2022-12-11T04:50:20.555Z,1.52
2022-12-11T04:51:00.397Z,1.53
2022-12-11T04:51:40.516Z,1.55
2022-12-11T04:52:20.407Z,1.39
2022-12-11T04:53:03.451Z,1.52
2022-12-11T04:53:44.370Z,1.45
2022-12-11T04:54:24.799Z,1.52
2022-12-11T04:55:04.412Z,1.27
2022-12-11T04:55:46.418Z,1.44
2022-12-11T04:56:27.399Z,1.48
2022-12-11T04:57:07.457Z,1.45
2022-12-11T04:57:48.409Z,1.48
2022-12-11T04:58:29.433Z,1.37
2022-12-11T04:59:09.395Z,1.30
2022-12-11T04:59:49.454Z,1.43
2022-12-11T05:00:29.371Z,1.46
2022-12-11T05:01:17.491Z,1.43
2022-12-11T05:01:58.407Z,1.46
2022-12-11T05:02:36.938Z,1.63
2022-12-11T05:03:18.399Z,1.63
2022-12-11T05:03:52.419Z,1.47
2022-12-11T05:04:26.439Z,1.52
2022-12-11T05:05:06.402Z,1.47
2022-12-11T05:05:40.426Z,1.56
2022-12-11T05:06:14.367Z,1.65
2022-12-11T05:06:57.360Z,1.65
2022-12-11T05:07:31.540Z,1.58
2022-12-11T05:08:05.540Z,1.44
2022-12-11T05:08:48.430Z,1.51
2022-12-11T05:09:22.430Z,1.56
2022-12-11T05:09:56.122Z,1.54
2022-12-11T05:10:36.368Z,1.58
2022-12-11T05:11:13.436Z,1.54
2022-12-11T05:11:48.031Z,1.62
2022-12-11T05:12:28.372Z,1.64
2022-12-11T05:13:02.394Z,1.43
2022-12-11T05:13:36.342Z,1.45
2022-12-11T05:14:16.399Z,1.46
2022-12-11T05:14:50.468Z,1.45
2022-12-11T05:15:24.221Z,1.52
2022-12-11T05:16:05.414Z,1.37
2022-12-11T05:16:39.407Z,1.28
2022-12-11T05:17:13.444Z,1.28
2022-12-11T05:17:53.368Z,1.34
2022-12-11T05:18:27.408Z,1.43
2022-12-11T05:19:01.226Z,1.44
2022-12-11T05:19:41.379Z,1.31
2022-12-11T05:20:15.383Z,1.16
2022-12-11T05:21:00.357Z,1.32
2022-12-11T05:21:41.369Z,1.35
2022-12-11T05:22:15.427Z,1.42
2022-12-11T05:22:49.030Z,1.46
2022-12-11T05:23:30.351Z,1.29
2022-12-11T05:24:04.403Z,1.34
2022-12-11T05:24:38.051Z,1.33
2022-12-11T05:25:18.408Z,1.31
2022-12-11T05:26:02.401Z,1.30
2022-12-11T05:26:37.051Z,1.23
2022-12-11T05:27:17.363Z,1.18
2022-12-11T05:27:51.413Z,1.22
2022-12-11T05:28:27.591Z,1.18
2022-12-11T05:29:07.339Z,1.18
2022-12-11T05:29:42.077Z,1.27
2022-12-11T05:30:16.184Z,1.21
2022-12-11T05:31:03.447Z,1.25
2022-12-11T05:31:37.499Z,1.27
2022-12-11T05:32:11.082Z,1.20
2022-12-11T05:32:51.345Z,1.34
2022-12-11T05:33:25.557Z,1.19
2022-12-11T05:33:59.082Z,1.31
2022-12-11T05:34:40.347Z,1.21
2022-12-11T05:35:14.468Z,1.12
2022-12-11T05:35:49.016Z,1.09
2022-12-11T05:36:37.374Z,1.14
2022-12-11T05:37:11.416Z,1.08
2022-12-11T05:37:45.011Z,1.20
2022-12-11T05:38:26.432Z,1.00
2022-12-11T05:39:00.759Z,1.04
2022-12-11T05:39:35.012Z,1.04
2022-12-11T05:40:19.424Z,1.12
2022-12-11T05:41:03.380Z,0.95
2022-12-11T05:41:44.368Z,0.94
2022-12-11T05:42:28.785Z,0.96
2022-12-11T05:43:09.344Z,1.10
2022-12-11T05:43:49.411Z,1.09
2022-12-11T05:44:30.338Z,1.06
2022-12-11T05:45:11.645Z,1.00
2022-12-11T05:45:52.313Z,1.08
2022-12-11T05:46:35.649Z,1.15
2022-12-11T05:47:15.372Z,1.09
2022-12-11T05:47:55.430Z,1.00
2022-12-11T05:48:35.347Z,0.90
2022-12-11T05:49:19.870Z,0.79
2022-12-11T05:50:00.329Z,0.92
2022-12-11T05:50:40.370Z,0.94
2022-12-11T05:51:21.322Z,0.95
2022-12-11T05:52:01.357Z,0.98
2022-12-11T05:52:41.350Z,1.16
2022-12-11T05:53:21.449Z,1.14
2022-12-11T05:54:04.334Z,1.07
2022-12-11T05:54:44.431Z,0.96
2022-12-11T05:55:24.342Z,1.03
2022-12-11T05:56:13.437Z,1.14
2022-12-11T05:56:53.309Z,1.13
2022-12-11T05:57:33.385Z,1.17
2022-12-11T05:58:14.326Z,1.12
2022-12-11T05:58:55.363Z,1.19
2022-12-11T05:59:35.312Z,1.18
2022-12-11T06:00:18.430Z,1.10
2022-12-11T06:00:58.327Z,1.18
2022-12-11T06:01:45.419Z,1.19
2022-12-11T06:02:26.455Z,1.24
2022-12-11T06:03:06.501Z,1.14
2022-12-11T06:03:47.327Z,1.10
2022-12-11T06:04:27.362Z,0.90
2022-12-11T06:05:07.326Z,0.94
2022-12-11T06:05:49.382Z,1.10
2022-12-11T06:06:30.326Z,1.12
2022-12-11T06:07:11.374Z,1.19
2022-12-11T06:07:51.354Z,0.93
2022-12-11T06:08:31.348Z,1.03
2022-12-11T06:09:12.325Z,0.99
2022-12-11T06:09:52.342Z,0.97
2022-12-11T06:10:32.301Z,0.91
2022-12-11T06:11:14.125Z,0.99
2022-12-11T06:11:54.295Z,0.94
2022-12-11T06:12:34.350Z,0.96
2022-12-11T06:13:14.295Z,1.03
2022-12-11T06:13:55.348Z,1.04
2022-12-11T06:14:35.335Z,0.97
2022-12-11T06:15:16.342Z,0.96
2022-12-11T06:15:56.312Z,1.06
2022-12-11T06:16:37.386Z,0.98
2022-12-11T06:17:17.302Z,1.05
2022-12-11T06:17:57.329Z,1.05
2022-12-11T06:18:38.281Z,1.04
2022-12-11T06:19:22.572Z,1.14
2022-12-11T06:20:02.325Z,1.02
2022-12-11T06:20:43.358Z,0.94
2022-12-11T06:21:31.291Z,0.84
2022-12-11T06:22:12.509Z,0.92
2022-12-11T06:22:52.298Z,0.85
2022-12-11T06:23:32.345Z,0.78
2022-12-11T06:24:13.297Z,0.81
2022-12-11T06:24:53.329Z,0.85
2022-12-11T06:25:34.342Z,0.83
2022-12-11T06:26:16.488Z,0.74
2022-12-11T06:26:56.295Z,0.75
2022-12-11T06:27:36.344Z,0.73
2022-12-11T06:28:16.288Z,0.76
2022-12-11T06:28:57.396Z,0.81
2022-12-11T06:29:38.277Z,0.85
2022-12-11T06:30:19.334Z,0.96
2022-12-11T06:30:59.359Z,1.00
2022-12-11T06:31:39.475Z,0.96
2022-12-11T06:32:19.303Z,0.94
2022-12-11T06:32:59.366Z,0.97
2022-12-11T06:33:39.300Z,0.84
2022-12-11T06:34:20.319Z,0.78
2022-12-11T06:35:00.270Z,0.90
2022-12-11T06:35:42.482Z,0.93
2022-12-11T06:36:28.309Z,0.87
2022-12-11T06:37:08.336Z,0.95
2022-12-11T06:37:48.273Z,1.04
2022-12-11T06:38:28.417Z,0.99
2022-12-11T06:39:09.288Z,0.85
2022-12-11T06:39:49.324Z,0.98
2022-12-11T06:40:29.273Z,1.01
2022-12-11T06:41:11.361Z,1.00
2022-12-11T06:41:51.304Z,1.02
2022-12-11T06:42:31.473Z,1.05
2022-12-11T06:43:11.255Z,0.99
2022-12-11T06:43:52.406Z,1.15
2022-12-11T06:44:32.252Z,1.13
2022-12-11T06:45:13.537Z,1.25
2022-12-11T06:45:57.923Z,1.20
2022-12-11T06:46:40.316Z,1.37
2022-12-11T06:47:20.286Z,1.15
2022-12-11T06:48:01.314Z,0.92
2022-12-11T06:48:41.261Z,1.09
2022-12-11T06:49:21.699Z,1.10
2022-12-11T06:50:03.258Z,1.10
2022-12-11T06:50:45.283Z,1.22
2022-12-11T06:51:29.253Z,1.07
2022-12-11T06:52:13.740Z,1.16
2022-12-11T06:52:58.291Z,1.26
2022-12-11T06:53:38.364Z,1.14
2022-12-11T06:54:18.255Z,1.13
2022-12-11T06:54:58.374Z,1.22
2022-12-11T06:55:42.249Z,1.12
2022-12-11T06:56:22.454Z,1.07
2022-12-11T06:57:03.260Z,1.13
2022-12-11T06:57:43.376Z,1.10
2022-12-11T06:58:23.278Z,1.13
2022-12-11T06:59:07.254Z,1.05
2022-12-11T06:59:48.267Z,1.03
2022-12-11T07:00:28.317Z,1.23
2022-12-11T07:01:09.303Z,1.18
2022-12-11T07:01:50.374Z,1.22
2022-12-11T07:02:30.342Z,1.27
2022-12-11T07:03:11.698Z,1.14
2022-12-11T07:03:53.267Z,1.29
2022-12-11T07:04:34.656Z,1.23
2022-12-11T07:05:15.273Z,1.00
2022-12-11T07:05:55.635Z,1.12
2022-12-11T07:06:37.256Z,1.14
2022-12-11T07:07:19.755Z,0.95
2022-12-11T07:08:03.340Z,0.96
2022-12-11T07:08:43.593Z,0.95
2022-12-11T07:09:25.278Z,0.99
2022-12-11T07:10:08.424Z,1.09
2022-12-11T07:10:49.238Z,0.97
2022-12-11T07:11:30.721Z,1.05
2022-12-11T07:12:12.247Z,1.05
2022-12-11T07:12:52.266Z,1.02
2022-12-11T07:13:32.239Z,1.05
2022-12-11T07:14:12.324Z,1.11
2022-12-11T07:14:52.251Z,1.17
2022-12-11T07:15:36.440Z,1.16
2022-12-11T07:16:23.243Z,1.31
2022-12-11T07:17:04.328Z,1.28
2022-12-11T07:17:44.216Z,1.02
2022-12-11T07:18:24.405Z,1.13
2022-12-11T07:19:04.227Z,1.08
2022-12-11T07:19:45.521Z,1.05
2022-12-11T07:20:25.244Z,1.04
2022-12-11T07:21:06.290Z,1.14
2022-12-11T07:21:46.224Z,1.19
2022-12-11T07:22:26.331Z,1.08
2022-12-11T07:23:13.220Z,1.03
2022-12-11T07:23:47.301Z,1.06
2022-12-11T07:24:34.237Z,1.04
2022-12-11T07:25:08.679Z,1.11
2022-12-11T07:25:49.285Z,1.11
2022-12-11T07:26:30.345Z,1.18
2022-12-11T07:27:11.236Z,1.27
2022-12-11T07:27:51.286Z,1.16
2022-12-11T07:28:32.209Z,1.16
2022-12-11T07:29:12.286Z,1.12
2022-12-11T07:29:52.204Z,1.18
2022-12-11T07:30:32.238Z,1.18
2022-12-11T07:31:19.328Z,1.25
2022-12-11T07:31:59.369Z,1.11
2022-12-11T07:32:39.268Z,1.21
2022-12-11T07:33:19.267Z,1.19
2022-12-11T07:34:06.208Z,0.99
2022-12-11T07:34:51.547Z,0.92
2022-12-11T07:35:32.195Z,1.00
2022-12-11T07:36:14.250Z,0.97
2022-12-11T07:36:54.227Z,1.04
2022-12-11T07:37:34.268Z,1.08
2022-12-11T07:38:15.219Z,1.11
2022-12-11T07:38:55.375Z,1.11
2022-12-11T07:39:35.225Z,1.15
2022-12-11T07:40:16.351Z,1.09
2022-12-11T07:40:56.207Z,1.14
2022-12-11T07:41:36.334Z,1.20
2022-12-11T07:42:17.228Z,1.13
2022-12-11T07:42:57.312Z,1.25
2022-12-11T07:43:38.195Z,1.24
2022-12-11T07:44:18.283Z,1.26
2022-12-11T07:44:58.207Z,1.28
2022-12-11T07:45:38.424Z,1.27
2022-12-11T07:46:25.206Z,1.30
2022-12-11T07:47:05.524Z,1.38
2022-12-11T07:47:45.234Z,1.33
2022-12-11T07:48:25.251Z,1.43
2022-12-11T07:49:07.189Z,1.43
2022-12-11T07:49:47.244Z,1.40
2022-12-11T07:50:27.273Z,1.45
2022-12-11T07:51:28.326Z,1.49
2022-12-11T07:52:09.199Z,1.29
2022-12-11T07:52:56.222Z,1.34
2022-12-11T07:53:50.202Z,1.24
2022-12-11T07:54:44.212Z,1.29
2022-12-11T07:55:39.197Z,1.29
2022-12-11T07:56:33.205Z,1.36
2022-12-11T07:57:27.196Z,1.42
2022-12-11T07:58:14.396Z,1.45
2022-12-11T07:58:48.263Z,1.38
2022-12-11T07:59:35.194Z,1.54
2022-12-11T08:00:11.870Z,1.53
2022-12-11T08:01:00.222Z,1.56
2022-12-11T08:01:36.585Z,1.59
2022-12-11T08:02:23.295Z,1.54
2022-12-11T08:02:57.213Z,1.59
2022-12-11T08:03:37.217Z,1.36
2022-12-11T08:04:18.259Z,1.11
2022-12-11T08:04:58.235Z,0.92
2022-12-11T08:05:38.279Z,0.99
2022-12-11T08:06:19.190Z,1.03
2022-12-11T08:06:59.303Z,1.08
2022-12-11T08:07:42.193Z,1.14
2022-12-11T08:08:23.360Z,1.18
2022-12-11T08:09:06.181Z,1.18
2022-12-11T08:09:46.215Z,1.07
2022-12-11T08:10:26.269Z,0.89
2022-12-11T08:11:11.343Z,0.92
2022-12-11T08:11:52.181Z,0.97
2022-12-11T08:12:32.305Z,1.00
2022-12-11T08:13:13.160Z,0.98
2022-12-11T08:13:53.212Z,0.84
2022-12-11T08:14:33.207Z,0.74
2022-12-11T08:15:14.283Z,0.95
2022-12-11T08:15:55.171Z,0.97
2022-12-11T08:16:38.089Z,1.02
2022-12-11T08:17:20.643Z,1.04
2022-12-11T08:18:02.422Z,1.00
2022-12-11T08:18:44.193Z,0.94
2022-12-11T08:19:24.227Z,1.02
2022-12-11T08:20:04.196Z,1.01
2022-12-11T08:20:45.278Z,0.92
2022-12-11T08:21:32.164Z,0.81
2022-12-11T08:22:13.213Z,0.78
2022-12-11T08:22:58.818Z,0.92
2022-12-11T08:23:53.161Z,0.85
2022-12-11T08:24:47.169Z,0.98
2022-12-11T08:25:28.191Z,0.94
2022-12-11T08:26:13.516Z,0.93
2022-12-11T08:26:55.165Z,0.96
2022-12-11T08:27:35.522Z,0.95
2022-12-11T08:28:15.140Z,0.97
2022-12-11T08:28:55.193Z,0.87
2022-12-11T08:29:37.224Z,1.09
2022-12-11T08:30:18.202Z,1.04
2022-12-11T08:30:58.266Z,1.09
2022-12-11T08:31:38.204Z,0.92
2022-12-11T08:32:20.152Z,1.13
2022-12-11T08:33:00.195Z,1.17
2022-12-11T08:33:43.138Z,1.09
2022-12-11T08:34:23.187Z,1.12
2022-12-11T08:35:03.146Z,1.12
2022-12-11T08:35:46.534Z,1.22
2022-12-11T08:36:28.179Z,1.28
2022-12-11T08:37:08.204Z,1.21
2022-12-11T08:37:49.172Z,1.14
2022-12-11T08:38:29.210Z,1.04
2022-12-11T08:39:10.162Z,1.01
2022-12-11T08:39:50.351Z,1.08
2022-12-11T08:40:30.139Z,1.11
2022-12-11T08:41:22.303Z,1.05
2022-12-11T08:42:03.131Z,1.06
2022-12-11T08:42:43.271Z,1.14
2022-12-11T08:43:23.130Z,1.03
2022-12-11T08:44:05.984Z,1.08
2022-12-11T08:44:46.143Z,1.11
2022-12-11T08:45:26.966Z,1.19
2022-12-11T08:46:07.236Z,1.14
2022-12-11T08:46:48.371Z,0.93
2022-12-11T08:47:29.139Z,0.91
2022-12-11T08:48:10.230Z,0.84
2022-12-11T08:48:51.123Z,0.89
2022-12-11T08:49:34.602Z,0.93
2022-12-11T08:50:16.183Z,1.05
2022-12-11T08:50:56.214Z,0.95
2022-12-11T08:51:37.152Z,0.88
2022-12-11T08:52:18.215Z,0.95
2022-12-11T08:53:00.142Z,1.04
2022-12-11T08:53:41.230Z,0.90
2022-12-11T08:54:21.112Z,0.96
2022-12-11T08:55:01.163Z,1.07
2022-12-11T08:55:41.128Z,0.99
2022-12-11T08:56:24.178Z,1.07
2022-12-11T08:57:04.132Z,1.13
2022-12-11T08:57:44.160Z,1.03
2022-12-11T08:58:24.159Z,1.07
2022-12-11T08:59:07.284Z,1.19
2022-12-11T08:59:48.114Z,1.15
2022-12-11T09:00:29.354Z,1.12
2022-12-11T09:01:19.220Z,1.06
2022-12-11T09:01:59.145Z,1.11
2022-12-11T09:02:39.192Z,1.14
2022-12-11T09:03:19.176Z,1.01
2022-12-11T09:04:01.140Z,0.98
2022-12-11T09:04:41.572Z,0.96
2022-12-11T09:05:21.127Z,1.08
2022-12-11T09:06:01.163Z,1.06
2022-12-11T09:06:41.112Z,1.00
2022-12-11T09:07:21.138Z,1.04
2022-12-11T09:08:01.216Z,1.10
2022-12-11T09:08:48.583Z,0.81
2022-12-11T09:09:33.148Z,0.83
2022-12-11T09:10:15.622Z,0.84
2022-12-11T09:10:56.112Z,0.62
2022-12-11T09:11:40.221Z,0.65
2022-12-11T09:12:21.145Z,0.65
2022-12-11T09:13:02.547Z,0.74
2022-12-11T09:13:44.092Z,0.70
2022-12-11T09:14:24.138Z,0.78
2022-12-11T09:15:04.139Z,0.59
2022-12-11T09:15:47.172Z,0.75
2022-12-11T09:16:30.094Z,0.68
2022-12-11T09:17:11.140Z,0.67
2022-12-11T09:17:51.102Z,0.76
2022-12-11T09:18:31.276Z,0.73
2022-12-11T09:19:15.102Z,0.77
2022-12-11T09:19:56.221Z,0.77
2022-12-11T09:20:37.118Z,0.83
2022-12-11T09:21:20.337Z,0.74
2022-12-11T09:22:01.109Z,0.78
2022-12-11T09:22:42.817Z,0.70
2022-12-11T09:23:30.100Z,0.69
2022-12-11T09:24:06.174Z,0.64
2022-12-11T09:24:53.090Z,0.56
2022-12-11T09:25:27.125Z,0.52
2022-12-11T09:26:12.105Z,0.51
2022-12-11T09:26:52.131Z,0.54
2022-12-11T09:27:33.072Z,0.57
2022-12-11T09:28:13.181Z,0.41
2022-12-11T09:28:54.091Z,0.57
2022-12-11T09:29:34.254Z,0.60
2022-12-11T09:30:16.095Z,0.44
2022-12-11T09:30:58.225Z,0.49
2022-12-11T09:31:42.157Z,0.56
2022-12-11T09:32:23.131Z,0.66
2022-12-11T09:33:04.114Z,0.70
2022-12-11T09:33:45.189Z,0.68
2022-12-11T09:34:29.222Z,0.71
2022-12-11T09:35:11.358Z,0.58